createdAt,value
2022-09-09T00:02:03.806Z,83.60
2022-09-09T00:04:31.557Z,83.70
2022-09-09T00:07:34.870Z,83.70
2022-09-09T00:10:21.009Z,84.00
2022-09-09T00:12:50.586Z,84.40
2022-09-09T00:15:24.532Z,84.50
2022-09-09T00:17:51.069Z,84.60
2022-09-09T00:20:35.689Z,84.10
2022-09-09T00:23:07.636Z,83.80
2022-09-09T00:25:43.210Z,83.80
2022-09-09T00:28:19.060Z,83.60
2022-09-09T00:30:49.154Z,83.10
2022-09-09T00:33:19.642Z,83.00
2022-09-09T00:35:50.582Z,82.80
2022-09-09T00:38:24.371Z,82.70
2022-09-09T00:41:04.140Z,82.80
2022-09-09T00:43:33.928Z,82.90
2022-09-09T00:46:35.986Z,82.80
2022-09-09T00:49:14.899Z,82.90
2022-09-09T00:52:03.685Z,83.10
2022-09-09T00:54:45.611Z,83.10
2022-09-09T00:57:29.299Z,83.70
2022-09-09T01:00:20.482Z,84.20
2022-09-09T01:03:20.311Z,85.40
2022-09-09T01:06:10.227Z,84.90
2022-09-09T01:09:01.811Z,85.30
2022-09-09T01:11:38.545Z,85.40
2022-09-09T01:14:20.659Z,85.30
2022-09-09T01:16:48.143Z,85.40
2022-09-09T01:19:25.308Z,85.20
2022-09-09T01:22:02.432Z,84.70
2022-09-09T01:24:43.286Z,84.40
2022-09-09T01:27:11.381Z,84.40
2022-09-09T01:29:38.614Z,84.60
2022-09-09T01:32:43.091Z,84.60
2022-09-09T01:35:22.554Z,84.20
2022-09-09T01:37:49.149Z,84.00
2022-09-09T01:40:16.278Z,83.90
2022-09-09T01:42:42.949Z,83.80
2022-09-09T01:45:10.212Z,84.20
2022-09-09T01:47:37.129Z,84.20
2022-09-09T01:50:04.376Z,84.60
2022-09-09T01:52:34.885Z,84.30
2022-09-09T01:55:01.531Z,84.40
2022-09-09T01:57:48.529Z,84.40
2022-09-09T02:00:16.286Z,83.80
2022-09-09T02:03:01.401Z,83.60
2022-09-09T02:06:05.823Z,83.50
2022-09-09T02:08:51.819Z,83.60
2022-09-09T02:11:24.252Z,83.60
2022-09-09T02:13:57.593Z,83.20
2022-09-09T02:16:31.929Z,83.50
2022-09-09T02:19:02.210Z,83.90
2022-09-09T02:21:31.314Z,83.70
2022-09-09T02:24:00.597Z,83.50
2022-09-09T02:26:27.975Z,83.50
2022-09-09T02:28:59.036Z,83.40
2022-09-09T02:31:26.733Z,83.30
2022-09-09T02:33:58.168Z,83.20
2022-09-09T02:36:27.600Z,83.70
2022-09-09T02:38:55.385Z,84.30
2022-09-09T02:41:26.943Z,84.10
2022-09-09T02:43:53.568Z,84.90
2022-09-09T02:46:40.029Z,84.80
2022-09-09T02:49:52.539Z,85.40
2022-09-09T02:52:30.994Z,85.00
2022-09-09T02:55:04.806Z,84.40
2022-09-09T02:57:32.704Z,84.10
2022-09-09T02:59:59.998Z,83.90
2022-09-09T03:02:26.874Z,84.80
2022-09-09T03:04:53.584Z,84.90
2022-09-09T03:07:20.425Z,85.60
2022-09-09T03:09:47.111Z,84.90
2022-09-09T03:12:13.772Z,84.60
2022-09-09T03:14:40.601Z,84.20
2022-09-09T03:17:07.782Z,84.10
2022-09-09T03:19:36.160Z,84.90
2022-09-09T03:22:02.824Z,84.70
2022-09-09T03:24:29.437Z,84.70
2022-09-09T03:26:56.747Z,84.70
2022-09-09T03:29:23.341Z,84.50
2022-09-09T03:31:51.555Z,84.70
2022-09-09T03:34:18.173Z,84.60
2022-09-09T03:36:44.846Z,84.50
2022-09-09T03:39:11.564Z,84.60
2022-09-09T03:41:38.225Z,84.50
2022-09-09T03:44:04.845Z,84.20
2022-09-09T03:46:32.198Z,84.50
2022-09-09T03:48:59.147Z,84.40
2022-09-09T03:51:25.810Z,84.30
2022-09-09T03:53:52.395Z,84.20
2022-09-09T03:56:18.964Z,84.40
2022-09-09T03:58:45.604Z,84.00
2022-09-09T04:01:14.453Z,84.20
2022-09-09T04:03:41.956Z,84.80
2022-09-09T04:06:10.540Z,84.70
2022-09-09T04:08:38.446Z,85.50
2022-09-09T04:11:07.371Z,85.80
2022-09-09T04:13:35.396Z,85.00
2022-09-09T04:16:04.612Z,84.90
2022-09-09T04:18:32.020Z,85.60
2022-09-09T04:20:58.934Z,85.90
2022-09-09T04:23:30.263Z,85.20
2022-09-09T04:25:58.522Z,84.90
2022-09-09T04:28:26.831Z,84.80
2022-09-09T04:30:53.457Z,85.10
2022-09-09T04:33:20.765Z,85.40
2022-09-09T04:35:49.436Z,85.40
2022-09-09T04:38:17.493Z,85.00
2022-09-09T04:40:48.218Z,84.90
2022-09-09T04:43:24.626Z,84.80
2022-09-09T04:45:52.751Z,84.70
2022-09-09T04:48:20.161Z,84.70
2022-09-09T04:51:05.780Z,84.60
2022-09-09T04:53:34.904Z,84.70
2022-09-09T04:56:08.574Z,84.80
2022-09-09T04:58:35.253Z,85.10
2022-09-09T05:01:07.152Z,84.60
2022-09-09T05:03:33.856Z,84.90
2022-09-09T05:06:07.953Z,84.90
2022-09-09T05:08:35.260Z,84.90
2022-09-09T05:11:01.877Z,85.00
2022-09-09T05:13:28.826Z,85.00
2022-09-09T05:15:55.717Z,85.10
2022-09-09T05:18:23.210Z,85.00
2022-09-09T05:20:51.841Z,85.10
2022-09-09T05:23:18.434Z,85.30
2022-09-09T05:25:46.645Z,85.30
2022-09-09T05:28:13.248Z,85.10
2022-09-09T05:30:39.968Z,85.30
2022-09-09T05:33:07.575Z,85.10
2022-09-09T05:35:34.400Z,86.00
2022-09-09T05:38:01.461Z,86.60
2022-09-09T05:40:28.072Z,87.00
2022-09-09T05:42:54.639Z,87.30
2022-09-09T05:45:21.472Z,87.60
2022-09-09T05:47:54.366Z,87.50
2022-09-09T05:50:20.948Z,86.70
2022-09-09T05:52:48.932Z,86.60
2022-09-09T05:55:16.409Z,86.60
2022-09-09T05:57:43.384Z,86.50
2022-09-09T06:00:10.614Z,86.50
2022-09-09T06:02:38.983Z,86.60
2022-09-09T06:05:06.127Z,86.50
2022-09-09T06:07:32.718Z,86.70
2022-09-09T06:09:59.945Z,86.60
2022-09-09T06:12:27.055Z,86.80
2022-09-09T06:14:53.602Z,86.60
2022-09-09T06:17:20.357Z,86.20
2022-09-09T06:19:47.237Z,86.00
2022-09-09T06:22:13.887Z,86.20
2022-09-09T06:24:40.510Z,85.90
2022-09-09T06:27:07.086Z,85.50
2022-09-09T06:29:33.692Z,85.30
2022-09-09T06:32:01.189Z,84.50
2022-09-09T06:34:27.815Z,84.10
2022-09-09T06:36:54.423Z,84.20
2022-09-09T06:39:21.688Z,84.60
2022-09-09T06:41:49.408Z,84.50
2022-09-09T06:44:16.388Z,84.20
2022-09-09T06:46:43.498Z,84.10
2022-09-09T06:49:10.635Z,84.30
2022-09-09T06:51:43.648Z,84.30
2022-09-09T06:54:12.129Z,83.90
2022-09-09T06:56:44.449Z,84.00
2022-09-09T06:59:13.053Z,84.00
2022-09-09T07:01:55.571Z,83.50
2022-09-09T07:04:22.779Z,83.20
2022-09-09T07:06:49.563Z,83.10
2022-09-09T07:09:17.545Z,83.10
2022-09-09T07:11:49.871Z,82.90
2022-09-09T07:14:16.703Z,82.60
2022-09-09T07:16:44.463Z,82.60
2022-09-09T07:19:12.364Z,82.80
2022-09-09T07:21:41.132Z,82.30
2022-09-09T07:24:08.372Z,82.70
2022-09-09T07:26:36.219Z,82.30
2022-09-09T07:29:03.398Z,82.40
2022-09-09T07:31:32.792Z,82.20
2022-09-09T07:34:03.477Z,81.60
2022-09-09T07:36:34.413Z,81.80
2022-09-09T07:39:04.461Z,80.60
2022-09-09T07:41:38.466Z,80.60
2022-09-09T07:44:20.030Z,79.70
2022-09-09T07:46:46.914Z,79.00
2022-09-09T07:49:14.252Z,78.80
2022-09-09T07:51:43.847Z,78.90
2022-09-09T07:54:13.460Z,78.90
2022-09-09T07:56:41.177Z,78.20
2022-09-09T07:59:08.889Z,77.30
2022-09-09T08:01:40.146Z,77.10
2022-09-09T08:04:16.023Z,76.30
2022-09-09T08:06:45.360Z,77.10
2022-09-09T08:09:12.022Z,76.80
2022-09-09T08:11:40.489Z,76.60
2022-09-09T08:14:08.725Z,76.60
2022-09-09T08:16:38.069Z,75.80
2022-09-09T08:19:07.366Z,75.50
2022-09-09T08:21:37.541Z,75.60
2022-09-09T08:24:06.079Z,74.90
2022-09-09T08:26:48.149Z,75.10
2022-09-09T08:29:15.618Z,75.40
2022-09-09T08:31:46.572Z,76.00
2022-09-09T08:34:13.517Z,76.30
2022-09-09T08:36:43.478Z,75.20
2022-09-09T08:39:12.225Z,75.60
2022-09-09T08:42:01.476Z,74.70
2022-09-09T08:44:48.895Z,74.90
2022-09-09T08:47:21.650Z,75.40
2022-09-09T08:50:25.542Z,75.00
2022-09-09T08:53:03.680Z,74.00
2022-09-09T08:55:42.767Z,73.40
2022-09-09T08:58:18.491Z,73.60
2022-09-09T09:01:03.534Z,73.40
2022-09-09T09:03:42.447Z,73.20
2022-09-09T09:06:23.715Z,73.50
2022-09-09T09:09:01.997Z,73.50
2022-09-09T09:11:47.422Z,73.60
2022-09-09T09:14:24.693Z,72.20
2022-09-09T09:16:58.678Z,71.90
2022-09-09T09:19:27.138Z,71.10
2022-09-09T09:22:23.553Z,70.70
2022-09-09T09:25:03.825Z,69.90
2022-09-09T09:27:38.526Z,69.20
2022-09-09T09:30:29.024Z,70.60
2022-09-09T09:32:59.364Z,69.20
2022-09-09T09:35:26.099Z,68.80
2022-09-09T09:40:59.052Z,69.00
2022-09-09T09:43:31.440Z,69.90
2022-09-09T09:46:16.693Z,68.90
2022-09-09T09:48:46.163Z,67.70
2022-09-09T09:51:17.123Z,67.70
2022-09-09T09:53:44.243Z,65.70
2022-09-09T09:56:13.993Z,65.90
2022-09-09T09:58:47.012Z,67.20
2022-09-09T10:01:34.246Z,66.40
2022-09-09T10:04:19.518Z,66.20
2022-09-09T10:06:46.557Z,65.40
2022-09-09T10:09:29.386Z,65.40
2022-09-09T10:12:01.963Z,65.40
2022-09-09T10:14:38.090Z,65.60
2022-09-09T10:17:30.224Z,65.70
2022-09-09T10:20:15.551Z,65.30
2022-09-09T10:22:52.459Z,64.20
2022-09-09T10:25:24.809Z,64.30
2022-09-09T10:28:19.274Z,61.70
2022-09-09T10:31:01.335Z,61.10
2022-09-09T10:33:51.320Z,61.30
2022-09-09T10:36:21.967Z,60.50
2022-09-09T10:39:20.934Z,60.20
2022-09-09T10:42:05.080Z,60.80
2022-09-09T10:44:37.885Z,60.90
2022-09-09T10:47:16.590Z,61.50
2022-09-09T10:50:04.744Z,61.60
2022-09-09T10:52:40.203Z,60.90
2022-09-09T10:55:29.862Z,57.90
2022-09-09T10:57:59.506Z,55.00
2022-09-09T11:00:41.543Z,51.70
2022-09-09T11:03:20.425Z,51.80
2022-09-09T11:06:11.075Z,50.90
2022-09-09T11:08:39.964Z,52.80
2022-09-09T11:11:43.547Z,52.80
2022-09-09T11:14:30.543Z,54.60
2022-09-09T11:17:07.543Z,55.10
2022-09-09T11:19:43.631Z,56.30
2022-09-09T11:22:24.599Z,56.20
2022-09-09T11:24:55.686Z,57.90
2022-09-09T11:27:53.307Z,57.10
2022-09-09T11:30:56.237Z,58.30
2022-09-09T11:33:27.016Z,59.10
2022-09-09T11:36:22.623Z,59.40
2022-09-09T11:38:52.755Z,59.50
2022-09-09T11:41:21.965Z,60.50
2022-09-09T11:43:55.034Z,61.10
2022-09-09T11:46:34.549Z,60.50
2022-09-09T11:49:04.277Z,59.20
2022-09-09T11:51:33.030Z,59.40
2022-09-09T11:54:06.008Z,59.40
2022-09-09T11:56:46.737Z,59.10
2022-09-09T11:59:33.684Z,59.40
2022-09-09T12:02:14.300Z,59.90
2022-09-09T12:04:48.609Z,60.10
2022-09-09T12:07:36.011Z,60.30
2022-09-09T12:10:28.288Z,60.50
2022-09-09T12:12:54.994Z,61.80
2022-09-09T12:15:23.410Z,64.10
2022-09-09T12:18:00.151Z,63.30
2022-09-09T12:20:37.722Z,62.90
2022-09-09T12:23:22.937Z,62.80
2022-09-09T12:26:16.773Z,63.10
2022-09-09T12:28:55.855Z,63.60
2022-09-09T12:31:45.707Z,64.10
2022-09-09T12:34:17.498Z,64.90
2022-09-09T12:36:51.854Z,65.90
2022-09-09T12:39:34.853Z,67.30
2022-09-09T12:42:01.546Z,68.60
2022-09-09T12:44:31.098Z,69.40
2022-09-09T12:47:01.773Z,69.40
2022-09-09T12:49:40.133Z,69.90
2022-09-09T12:52:22.153Z,68.90
2022-09-09T12:54:49.521Z,68.50
2022-09-09T12:57:16.485Z,68.20
2022-09-09T12:59:46.192Z,66.20
2022-09-09T13:02:19.412Z,66.40
2022-09-09T13:04:47.764Z,65.50
2022-09-09T13:07:16.925Z,65.40
2022-09-09T13:09:45.446Z,65.10
2022-09-09T13:12:20.483Z,65.80
2022-09-09T13:14:50.286Z,64.20
2022-09-09T13:17:29.849Z,63.90
2022-09-09T13:19:57.371Z,64.10
2022-09-09T13:22:28.386Z,62.90
2022-09-09T13:25:26.530Z,63.10
2022-09-09T13:28:04.863Z,63.90
2022-09-09T13:30:33.417Z,63.40
2022-09-09T13:33:15.433Z,63.60
2022-09-09T13:35:50.244Z,62.20
2022-09-09T13:38:17.678Z,62.60
2022-09-09T13:40:55.890Z,63.40
2022-09-09T13:43:24.187Z,63.50
2022-09-09T13:45:57.187Z,63.10
2022-09-09T13:48:25.067Z,63.90
2022-09-09T13:51:06.143Z,64.30
2022-09-09T13:53:33.169Z,64.30
2022-09-09T13:56:00.643Z,64.70
2022-09-09T13:58:27.432Z,64.90
2022-09-09T14:00:54.422Z,64.90
2022-09-09T14:03:21.958Z,66.10
2022-09-09T14:05:48.717Z,65.70
2022-09-09T14:08:24.748Z,65.40
2022-09-09T14:10:51.752Z,65.70
2022-09-09T14:13:18.441Z,66.80
2022-09-09T14:15:45.117Z,67.30
2022-09-09T14:18:14.096Z,68.00
2022-09-09T14:20:40.916Z,69.00
2022-09-09T14:23:12.009Z,69.40
2022-09-09T14:25:44.144Z,70.30
2022-09-09T14:28:12.710Z,70.90
2022-09-09T14:30:41.681Z,70.40
2022-09-09T14:33:10.542Z,71.70
2022-09-09T14:35:37.156Z,71.70
2022-09-09T14:38:05.612Z,71.30
2022-09-09T14:40:32.561Z,71.20
2022-09-09T14:42:59.368Z,71.10
2022-09-09T14:45:27.182Z,71.30
2022-09-09T14:47:53.868Z,71.50
2022-09-09T14:50:21.172Z,72.00
2022-09-09T14:52:48.161Z,74.40
2022-09-09T14:55:14.934Z,77.10
2022-09-09T14:57:41.978Z,77.90
2022-09-09T15:00:10.773Z,78.60
2022-09-09T15:02:37.445Z,78.30
2022-09-09T15:05:05.166Z,79.90
2022-09-09T15:07:32.829Z,79.60
2022-09-09T15:09:59.454Z,79.70
2022-09-09T15:12:26.041Z,79.20
2022-09-09T15:14:54.517Z,79.30
2022-09-09T15:17:21.445Z,79.30
2022-09-09T15:19:48.189Z,79.70
2022-09-09T15:22:15.115Z,78.10
2022-09-09T15:24:41.714Z,77.00
2022-09-09T15:27:08.315Z,75.60
2022-09-09T15:29:34.953Z,74.30
2022-09-09T15:32:01.589Z,75.50
2022-09-09T15:34:28.213Z,77.00
2022-09-09T15:36:56.409Z,77.40
2022-09-09T15:39:23.559Z,76.90
2022-09-09T15:41:50.161Z,74.80
2022-09-09T15:44:16.950Z,74.90
2022-09-09T15:46:44.809Z,75.70
2022-09-09T15:49:14.193Z,75.30
2022-09-09T15:51:46.238Z,74.70
2022-09-09T15:54:18.801Z,74.90
2022-09-09T15:56:47.495Z,75.30
2022-09-09T15:59:15.623Z,74.10
2022-09-09T16:01:43.038Z,74.20
2022-09-09T16:04:10.457Z,73.20
2022-09-09T16:06:37.513Z,73.60
2022-09-09T16:09:06.564Z,72.40
2022-09-09T16:11:36.469Z,70.60
2022-09-09T16:14:06.227Z,70.40
2022-09-09T16:16:33.253Z,69.80
2022-09-09T16:19:02.928Z,70.10
2022-09-09T16:21:32.215Z,69.80
2022-09-09T16:24:00.911Z,69.50
2022-09-09T16:26:28.568Z,70.90
2022-09-09T16:28:55.319Z,70.30
2022-09-09T16:31:24.259Z,70.40
2022-09-09T16:33:51.761Z,70.60
2022-09-09T16:36:27.777Z,70.60
2022-09-09T16:38:56.006Z,70.60
2022-09-09T16:41:22.969Z,70.50
2022-09-09T16:44:01.329Z,70.30
2022-09-09T16:46:29.734Z,70.30
2022-09-09T16:49:00.653Z,70.60
2022-09-09T16:51:30.367Z,71.20
2022-09-09T16:53:59.844Z,71.60
2022-09-09T16:56:28.639Z,72.00
2022-09-09T16:58:58.079Z,72.30
2022-09-09T17:01:26.452Z,72.30
2022-09-09T17:04:00.840Z,73.00
2022-09-09T17:06:29.841Z,71.90
2022-09-09T17:08:58.118Z,72.40
2022-09-09T17:11:25.337Z,72.10
2022-09-09T17:13:53.682Z,72.50
2022-09-09T17:16:22.682Z,73.60
2022-09-09T17:18:50.805Z,73.80
2022-09-09T17:21:20.478Z,74.60
2022-09-09T17:23:47.685Z,76.00
2022-09-09T17:26:17.358Z,76.10
2022-09-09T17:28:46.468Z,77.10
2022-09-09T17:31:16.143Z,78.10
2022-09-09T17:33:46.897Z,79.30
2022-09-09T17:36:19.970Z,79.90
2022-09-09T17:38:47.792Z,80.70
2022-09-09T17:41:18.648Z,81.20
2022-09-09T17:43:46.051Z,81.70
2022-09-09T17:46:18.112Z,82.50
2022-09-09T17:48:45.732Z,82.90
2022-09-09T17:51:15.031Z,83.10
2022-09-09T17:53:44.655Z,84.10
2022-09-09T17:56:13.464Z,84.90
2022-09-09T17:58:40.393Z,85.20
2022-09-09T18:01:12.708Z,85.10
2022-09-09T18:03:40.551Z,85.10
2022-09-09T18:06:09.608Z,85.10
2022-09-09T18:08:36.999Z,84.90
2022-09-09T18:11:04.570Z,85.00
2022-09-09T18:13:31.374Z,85.00
2022-09-09T18:15:58.464Z,84.00
2022-09-09T18:18:26.172Z,84.00
2022-09-09T18:21:01.702Z,83.50
2022-09-09T18:23:32.425Z,82.70
2022-09-09T18:25:59.540Z,82.20
2022-09-09T18:28:29.314Z,82.00
2022-09-09T18:30:56.036Z,81.50
2022-09-09T18:33:22.675Z,81.30
2022-09-09T18:35:49.295Z,81.10
2022-09-09T18:38:17.518Z,81.10
2022-09-09T18:40:44.540Z,80.90
2022-09-09T18:43:12.737Z,81.10
2022-09-09T18:45:39.470Z,82.10
2022-09-09T18:48:06.072Z,83.80
2022-09-09T18:50:34.193Z,84.40
2022-09-09T18:53:00.791Z,84.20
2022-09-09T18:55:28.721Z,84.30
2022-09-09T18:57:58.598Z,83.90
2022-09-09T19:00:25.639Z,83.20
2022-09-09T19:02:53.054Z,83.80
2022-09-09T19:05:19.754Z,83.60
2022-09-09T19:07:46.337Z,84.50
2022-09-09T19:10:13.276Z,84.10
2022-09-09T19:12:41.322Z,85.20
2022-09-09T19:15:08.377Z,85.50
2022-09-09T19:17:36.572Z,85.40
2022-09-09T19:20:03.922Z,85.60
2022-09-09T19:22:30.842Z,86.00
2022-09-09T19:24:59.074Z,86.00
2022-09-09T19:27:25.751Z,85.20
2022-09-09T19:29:56.801Z,86.00
2022-09-09T19:35:11.099Z,86.40
2022-09-09T19:37:37.670Z,87.00
2022-09-09T19:40:06.681Z,87.50
2022-09-09T19:42:33.391Z,87.70
2022-09-09T19:45:00.097Z,88.20
2022-09-09T19:47:26.845Z,88.20
2022-09-09T19:49:53.642Z,88.90
2022-09-09T19:52:20.281Z,88.80
2022-09-09T19:54:47.023Z,88.70
2022-09-09T19:57:13.720Z,89.20
2022-09-09T19:59:40.348Z,89.80
2022-09-09T20:02:07.084Z,89.80
2022-09-09T20:04:35.114Z,89.80
2022-09-09T20:07:02.179Z,89.80
2022-09-09T20:09:30.323Z,89.80
2022-09-09T20:11:57.003Z,89.40
2022-09-09T20:14:24.029Z,88.70
2022-09-09T20:16:50.672Z,88.00
2022-09-09T20:19:17.417Z,88.00
2022-09-09T20:21:48.255Z,87.80
2022-09-09T20:24:20.079Z,87.50
2022-09-09T20:26:47.929Z,87.60
2022-09-09T20:29:16.692Z,87.10
2022-09-09T20:31:44.232Z,87.10
2022-09-09T20:34:14.008Z,87.10
2022-09-09T20:36:41.686Z,86.80
2022-09-09T20:39:17.270Z,87.00
2022-09-09T20:41:45.870Z,87.50
2022-09-09T20:44:24.232Z,87.40
2022-09-09T20:46:55.321Z,88.00
2022-09-09T20:49:24.129Z,87.50
2022-09-09T20:51:51.663Z,87.30
2022-09-09T20:54:20.862Z,87.60
2022-09-09T20:56:50.218Z,87.30
2022-09-09T20:59:24.539Z,87.60
2022-09-09T21:01:51.772Z,88.30
2022-09-09T21:04:20.293Z,88.80
2022-09-09T21:06:49.068Z,88.80
2022-09-09T21:09:15.861Z,89.10
2022-09-09T21:11:42.447Z,89.40
2022-09-09T21:14:09.687Z,89.10
2022-09-09T21:16:36.306Z,89.50
2022-09-09T21:19:03.001Z,89.60
2022-09-09T21:21:29.681Z,89.80
2022-09-09T21:23:58.179Z,89.80
2022-09-09T21:26:25.274Z,89.80
2022-09-09T21:28:52.048Z,89.80
2022-09-09T21:31:19.868Z,89.80
2022-09-09T21:33:46.595Z,89.80
2022-09-09T21:36:14.539Z,89.80
2022-09-09T21:38:41.849Z,89.80
2022-09-09T21:41:14.205Z,89.80
2022-09-09T21:43:42.232Z,89.80
2022-09-09T21:46:11.499Z,89.80
2022-09-09T21:48:38.312Z,89.60
2022-09-09T21:51:09.636Z,88.90
2022-09-09T21:53:36.924Z,88.80
2022-09-09T21:56:06.900Z,89.30
2022-09-09T21:58:35.031Z,89.60
2022-09-09T22:01:02.523Z,89.80
2022-09-09T22:03:29.110Z,89.80
2022-09-09T22:05:55.742Z,89.80
2022-09-09T22:08:22.416Z,89.70
2022-09-09T22:10:49.033Z,89.80
2022-09-09T22:13:16.925Z,89.80
2022-09-09T22:15:45.441Z,89.80
2022-09-09T22:18:14.021Z,89.80
2022-09-09T22:20:43.342Z,89.80
2022-09-09T22:23:10.361Z,89.80
2022-09-09T22:25:38.006Z,89.80
2022-09-09T22:28:06.171Z,89.80
2022-09-09T22:30:33.617Z,89.80
2022-09-09T22:33:01.205Z,89.80
2022-09-09T22:35:27.945Z,89.80
2022-09-09T22:37:55.777Z,89.80
2022-09-09T22:40:22.763Z,89.80
2022-09-09T22:42:52.707Z,89.40
2022-09-09T22:45:21.517Z,89.70
2022-09-09T22:47:48.188Z,89.80
2022-09-09T22:50:14.943Z,89.80
2022-09-09T22:52:41.567Z,89.80
2022-09-09T22:55:09.256Z,89.40
2022-09-09T22:57:36.452Z,88.70
2022-09-09T23:00:09.039Z,88.50
2022-09-09T23:02:40.790Z,88.50
2022-09-09T23:05:08.624Z,88.60
2022-09-09T23:07:36.606Z,88.70
2022-09-09T23:10:05.466Z,89.00
2022-09-09T23:12:32.554Z,89.40
2022-09-09T23:14:59.236Z,89.20
2022-09-09T23:17:26.320Z,88.80
2022-09-09T23:19:56.265Z,88.90
2022-09-09T23:22:27.025Z,88.60
2022-09-09T23:24:53.935Z,88.60
2022-09-09T23:27:24.042Z,88.60
2022-09-09T23:29:51.655Z,88.50
2022-09-09T23:32:18.390Z,88.50
2022-09-09T23:34:45.815Z,88.60
2022-09-09T23:37:12.863Z,88.80
2022-09-09T23:39:40.422Z,88.60
2022-09-09T23:42:08.028Z,89.00
2022-09-09T23:44:38.405Z,89.20
2022-09-09T23:47:06.435Z,89.30
2022-09-09T23:49:34.723Z,89.40
2022-09-09T23:52:05.218Z,89.80
2022-09-09T23:54:33.080Z,89.80
2022-09-09T23:57:00.097Z,89.80
2022-09-09T23:59:26.825Z,89.70
